Time;durP1;ratioP1;P1;durP2;ratioP2;P2;SDS_P1;SDS_P2;PMS_P1;PMS_P2;Temp;Humidity;BMP_temperature;BMP_pressure;BME280_temperature;BME280_humidity;BME280_pressure;Samples;Min_cycle;Max_cycle;Signal;HPM_P1;HPM_P2
2022/11/08 00:02:22;;;;;;;0.40;0.40;;;21.10;96.90;;;;;;5054219;28;20232;-67
2022/11/08 00:14:28;;;;;;;0.40;0.40;;;21.30;96.60;;;;;;5055755;28;20307;-67
2022/11/08 00:17:18;;;;;;;0.40;0.40;;;21.30;96.40;;;;;;5058170;28;20207;-67
2022/11/08 00:20:07;;;;;;;0.40;0.40;;;21.30;96.30;;;;;;5057568;28;20227;-67
2022/11/08 00:22:55;;;;;;;0.40;0.40;;;21.30;96.30;;;;;;5069775;28;20213;-67
2022/11/08 00:25:45;;;;;;;0.40;0.40;;;21.30;96.30;;;;;;5074153;28;20193;-67
2022/11/08 00:28:33;;;;;;;0.40;0.40;;;21.20;97.90;;;;;;5075099;28;20205;-68
2022/11/08 00:31:22;;;;;;;0.40;0.40;;;21.20;96.50;;;;;;5071709;28;20261;-69
2022/11/08 00:34:10;;;;;;;0.50;0.50;;;21.10;96.50;;;;;;5070604;28;20224;-67
2022/11/08 00:36:58;;;;;;;0.40;0.40;;;20.90;96.50;;;;;;5073208;28;20491;-66
2022/11/08 00:39:47;;;;;;;0.40;0.40;;;21.00;96.60;;;;;;5072868;28;20649;-66
2022/11/08 00:42:35;;;;;;;0.40;0.40;;;20.90;96.70;;;;;;5068100;28;20198;-67
2022/11/08 00:45:23;;;;;;;0.40;0.40;;;20.80;96.80;;;;;;5064807;28;20233;-66
2022/11/08 00:48:12;;;;;;;0.40;0.40;;;20.70;96.80;;;;;;5067047;28;20208;-67
2022/11/08 00:51:01;;;;;;;0.40;0.40;;;20.60;96.80;;;;;;5062134;28;20733;-66
2022/11/08 00:53:49;;;;;;;0.40;0.40;;;20.70;97.00;;;;;;5052617;28;20217;-67
2022/11/08 00:56:37;;;;;;;0.40;0.40;;;20.70;97.30;;;;;;5054721;28;20211;-67
2022/11/08 00:59:25;;;;;;;0.40;0.40;;;20.70;97.30;;;;;;5052150;28;20214;-67
2022/11/08 01:02:13;;;;;;;0.40;0.40;;;20.70;97.30;;;;;;5052696;28;20212;-67
2022/11/08 01:05:03;;;;;;;0.40;0.40;;;20.70;97.20;;;;;;5058957;28;20204;-68
2022/11/08 01:07:51;;;;;;;0.40;0.40;;;20.80;97.20;;;;;;5056959;28;20272;-67
2022/11/08 01:10:41;;;;;;;0.30;0.30;;;20.80;97.10;;;;;;5055836;28;20245;-66
2022/11/08 01:13:29;;;;;;;0.40;0.40;;;20.90;97.10;;;;;;5056245;28;20721;-68
2022/11/08 01:16:19;;;;;;;0.40;0.40;;;21.00;96.90;;;;;;5055392;28;20209;-66
2022/11/08 01:19:07;;;;;;;0.40;0.40;;;21.00;96.80;;;;;;5051302;28;20497;-67
2022/11/08 01:21:57;;;;;;;0.40;0.40;;;21.10;96.80;;;;;;5052192;28;20681;-66
2022/11/08 01:24:45;;;;;;;0.88;0.88;;;21.20;96.70;;;;;;5051167;28;20198;-66
2022/11/08 01:27:33;;;;;;;0.35;0.35;;;21.20;96.60;;;;;;5051724;28;20203;-67
2022/11/08 01:30:21;;;;;;;0.40;0.40;;;21.20;96.50;;;;;;5050897;28;20217;-66
2022/11/08 01:33:10;;;;;;;0.40;0.40;;;21.30;96.30;;;;;;5051368;28;20583;-67
2022/11/08 01:35:58;;;;;;;0.40;0.40;;;21.30;96.20;;;;;;5050650;28;20284;-66
2022/11/08 01:38:47;;;;;;;1.02;1.02;;;21.30;99.90;;;;;;5051797;28;20212;-67
2022/11/08 01:41:35;;;;;;;0.40;0.40;;;21.30;96.30;;;;;;5051289;28;20276;-67
2022/11/08 01:44:23;;;;;;;0.40;0.40;;;21.10;96.20;;;;;;5051416;28;20276;-66
2022/11/08 01:47:11;;;;;;;0.80;0.80;;;21.20;96.40;;;;;;5052118;28;20288;-66
2022/11/08 01:50:03;;;;;;;0.40;0.40;;;21.10;96.50;;;;;;5051391;28;20702;-66
2022/11/08 01:52:54;;;;;;;0.40;0.40;;;21.10;96.50;;;;;;5051816;28;20331;-66
2022/11/08 01:55:44;;;;;;;0.40;0.40;;;21.00;96.50;;;;;;5051618;28;20225;-66
2022/11/08 01:58:36;;;;;;;0.40;0.40;;;20.80;96.50;;;;;;5051613;28;20632;-66
2022/11/08 02:01:24;;;;;;;0.40;0.40;;;20.80;96.70;;;;;;5051449;28;20202;-66
2022/11/08 02:04:14;;;;;;;0.40;0.40;;;20.80;96.90;;;;;;5051541;28;20193;-66
2022/11/08 02:07:04;;;;;;;0.40;0.40;;;20.70;96.80;;;;;;5051640;28;20215;-66
2022/11/08 02:09:52;;;;;;;0.40;0.40;;;20.60;96.80;;;;;;5051561;28;20296;-66
2022/11/08 02:12:42;;;;;;;0.40;0.40;;;20.60;97.00;;;;;;5051719;28;20243;-66
2022/11/08 02:15:30;;;;;;;0.40;0.40;;;20.50;97.10;;;;;;5051487;28;20225;-66
2022/11/08 02:18:21;;;;;;;0.40;0.40;;;20.50;97.10;;;;;;5051785;28;20264;-66
2022/11/08 02:21:14;;;;;;;0.50;0.40;;;20.60;97.30;;;;;;5051074;28;20201;-66
2022/11/08 02:24:08;;;;;;;0.40;0.40;;;20.60;97.40;;;;;;5051386;28;20225;-66
2022/11/08 02:26:58;;;;;;;0.63;0.63;;;20.60;97.30;;;;;;5051500;28;20209;-66
2022/11/08 02:29:46;;;;;;;0.50;0.50;;;20.70;97.30;;;;;;5050885;28;20769;-67
2022/11/08 02:32:38;;;;;;;0.40;0.40;;;20.80;97.20;;;;;;5051724;28;20206;-67
2022/11/08 02:35:27;;;;;;;0.40;0.40;;;20.80;97.50;;;;;;5051480;28;20227;-66
2022/11/08 02:38:16;;;;;;;0.40;0.40;;;20.80;97.00;;;;;;5054728;28;20205;-66
2022/11/08 02:41:06;;;;;;;0.35;0.35;;;20.90;97.30;;;;;;5054967;28;20242;-66
2022/11/08 02:43:54;;;;;;;0.40;0.40;;;21.00;96.90;;;;;;5055272;28;20705;-68
2022/11/08 02:46:42;;;;;;;0.40;0.40;;;21.00;96.80;;;;;;5040490;28;20207;-66
2022/11/08 02:49:30;;;;;;;0.50;0.50;;;21.00;96.70;;;;;;5040577;28;20232;-67
2022/11/08 02:52:18;;;;;;;0.40;0.40;;;21.10;96.40;;;;;;5034607;28;20214;-67
2022/11/08 02:55:07;;;;;;;0.40;0.40;;;21.10;96.60;;;;;;5035256;28;20691;-67
2022/11/08 02:57:57;;;;;;;0.40;0.40;;;21.10;96.50;;;;;;5033956;28;20213;-66
2022/11/08 03:00:45;;;;;;;0.40;0.40;;;21.10;96.60;;;;;;5034466;28;20218;-67
2022/11/08 03:03:33;;;;;;;0.40;0.40;;;21.10;96.50;;;;;;5035529;28;20734;-67
2022/11/08 03:06:21;;;;;;;0.40;0.40;;;21.10;96.60;;;;;;5034091;28;20316;-66
2022/11/08 03:09:09;;;;;;;0.40;0.40;;;21.00;96.60;;;;;;5035309;28;20229;-66
2022/11/08 03:11:57;;;;;;;0.40;0.40;;;20.90;96.70;;;;;;5033980;28;20202;-66
2022/11/08 03:14:47;;;;;;;0.40;0.40;;;20.90;96.80;;;;;;5035038;28;20598;-67
2022/11/08 03:17:35;;;;;;;0.68;0.68;;;20.80;96.90;;;;;;5034378;28;20305;-65
2022/11/08 03:20:23;;;;;;;0.40;0.40;;;20.70;96.90;;;;;;5034124;28;20227;-66
2022/11/08 03:23:19;;;;;;;0.40;0.40;;;20.50;97.00;;;;;;5034176;28;20233;-65
2022/11/08 03:26:07;;;;;;;0.40;0.40;;;20.50;97.20;;;;;;5034860;28;20194;-66
2022/11/08 03:28:55;;;;;;;0.40;0.40;;;20.50;97.20;;;;;;5034314;28;20228;-66
2022/11/08 03:31:45;;;;;;;0.40;0.40;;;20.50;97.20;;;;;;5033581;28;20423;-66
2022/11/08 03:34:33;;;;;;;0.40;0.40;;;20.30;97.30;;;;;;5033860;28;20224;-66
2022/11/08 03:37:22;;;;;;;0.40;0.40;;;20.40;97.40;;;;;;5033477;28;20277;-66
2022/11/08 03:40:11;;;;;;;0.40;0.40;;;20.40;97.40;;;;;;5032267;28;20226;-66
2022/11/08 03:42:59;;;;;;;0.40;0.40;;;20.50;97.50;;;;;;5032800;28;20281;-66
2022/11/08 03:45:47;;;;;;;0.40;0.40;;;20.60;97.50;;;;;;5033048;28;20202;-65
2022/11/08 03:48:36;;;;;;;0.40;0.40;;;20.60;97.50;;;;;;5033787;28;20202;-66
2022/11/08 03:51:24;;;;;;;0.40;0.40;;;20.60;97.40;;;;;;5032726;28;20194;-66
2022/11/08 03:54:13;;;;;;;0.40;0.40;;;20.70;97.40;;;;;;5032266;28;20212;-66
2022/11/08 03:57:01;;;;;;;0.40;0.40;;;20.80;97.30;;;;;;5033905;28;20220;-66
2022/11/08 03:59:49;;;;;;;0.40;0.40;;;20.70;97.10;;;;;;5033209;28;20221;-66
2022/11/08 04:02:37;;;;;;;0.40;0.40;;;20.70;97.00;;;;;;5032996;28;20284;-67
2022/11/08 04:05:27;;;;;;;0.40;0.40;;;20.90;97.00;;;;;;5034458;28;20203;-66
2022/11/08 04:08:15;;;;;;;0.40;0.40;;;20.90;96.90;;;;;;5033402;28;20225;-66
2022/11/08 04:17:11;;;;;;;0.40;0.40;;;21.00;96.70;;;;;;5032460;28;20210;-67
2022/11/08 04:23:06;;;;;;;0.40;0.40;;;20.90;96.60;;;;;;5032607;28;20243;-67
2022/11/08 04:25:55;;;;;;;0.40;0.40;;;20.80;96.60;;;;;;5032928;28;20205;-67
2022/11/08 04:28:43;;;;;;;0.40;0.40;;;20.80;98.10;;;;;;5032706;28;20234;-67
2022/11/08 04:31:31;;;;;;;0.40;0.40;;;20.80;96.60;;;;;;5032787;28;20259;-67
2022/11/08 04:34:19;;;;;;;0.40;0.40;;;20.70;96.80;;;;;;5032636;28;20233;-67
2022/11/08 04:37:07;;;;;;;0.40;0.40;;;20.70;96.80;;;;;;5032909;28;20200;-67
2022/11/08 04:39:57;;;;;;;0.40;0.40;;;20.60;96.80;;;;;;5031456;28;20226;-66
2022/11/08 04:42:45;;;;;;;0.85;0.85;;;20.50;96.80;;;;;;5033262;28;20204;-66
2022/11/08 04:45:33;;;;;;;0.40;0.40;;;20.50;97.00;;;;;;5035956;28;20277;-67
2022/11/08 04:48:21;;;;;;;1.65;1.30;;;20.40;97.00;;;;;;5032437;28;20577;-66
2022/11/08 04:51:13;;;;;;;0.40;0.40;;;20.40;97.10;;;;;;5032156;28;20284;-66
2022/11/08 04:54:05;;;;;;;1.35;1.25;;;20.30;97.20;;;;;;5031654;28;20676;-67
2022/11/08 04:56:54;;;;;;;0.40;0.40;;;20.50;97.30;;;;;;5033427;28;20229;-66
2022/11/08 04:59:42;;;;;;;0.40;0.40;;;20.30;97.30;;;;;;5031837;28;20218;-67
2022/11/08 05:02:30;;;;;;;0.40;0.40;;;20.40;97.30;;;;;;5032274;28;20288;-66
2022/11/08 05:05:18;;;;;;;0.40;0.40;;;20.50;97.20;;;;;;5032179;28;20201;-66
2022/11/08 05:08:06;;;;;;;0.40;0.40;;;20.50;97.10;;;;;;5031845;28;20237;-67
2022/11/08 05:11:00;;;;;;;3.83;2.25;;;20.60;97.00;;;;;;5031729;28;20679;-67
2022/11/08 05:13:50;;;;;;;0.47;0.47;;;20.70;97.00;;;;;;5031874;28;20208;-67
2022/11/08 05:16:38;;;;;;;0.40;0.40;;;20.70;96.90;;;;;;5031539;28;20226;-66
2022/11/08 05:25:39;;;;;;;0.40;0.40;;;20.70;96.40;;;;;;5031108;28;20216;-66
2022/11/08 05:28:27;;;;;;;0.40;0.40;;;20.90;97.60;;;;;;5030840;28;20675;-66
2022/11/08 05:31:17;;;;;;;0.40;0.40;;;20.80;96.40;;;;;;5031501;28;20202;-66
2022/11/08 05:34:06;;;;;;;0.40;0.40;;;20.80;96.30;;;;;;5030677;28;20202;-67
2022/11/08 05:36:54;;;;;;;0.40;0.40;;;20.80;96.20;;;;;;5030949;28;20691;-66
2022/11/08 05:39:42;;;;;;;0.40;0.40;;;20.80;96.40;;;;;;5030988;28;20785;-66
2022/11/08 05:42:30;;;;;;;0.40;0.40;;;20.70;96.40;;;;;;5030918;28;20206;-66
2022/11/08 05:45:18;;;;;;;0.70;0.70;;;20.60;96.50;;;;;;5031578;28;20647;-66
2022/11/08 05:48:08;;;;;;;0.40;0.40;;;20.60;96.50;;;;;;5032052;28;20229;-66
2022/11/08 05:50:56;;;;;;;0.40;0.40;;;20.60;96.60;;;;;;5030701;28;20204;-67
2022/11/08 05:53:45;;;;;;;2.15;2.05;;;20.50;96.50;;;;;;5030696;28;20332;-66
2022/11/08 05:56:33;;;;;;;1.05;1.05;;;20.40;96.60;;;;;;5032538;28;20253;-66
2022/11/08 05:59:21;;;;;;;0.40;0.40;;;20.20;96.60;;;;;;5023127;28;20336;-66
2022/11/08 06:02:09;;;;;;;0.40;0.40;;;20.30;96.80;;;;;;5031626;28;20277;-66
2022/11/08 06:04:59;;;;;;;4.57;3.80;;;20.20;96.70;;;;;;5032443;28;20201;-66
2022/11/08 06:07:47;;;;;;;0.40;0.40;;;20.20;96.80;;;;;;5031145;28;20630;-66
2022/11/08 06:10:35;;;;;;;0.63;0.63;;;20.00;96.80;;;;;;5030707;28;20224;-66
2022/11/08 06:13:23;;;;;;;0.40;0.40;;;20.20;97.00;;;;;;5035402;28;20280;-66
2022/11/08 06:16:13;;;;;;;0.40;0.40;;;20.20;96.90;;;;;;5036581;28;20221;-66
2022/11/08 06:19:01;;;;;;;5.10;4.78;;;20.20;97.00;;;;;;5035635;28;20750;-66
2022/11/08 06:21:51;;;;;;;0.40;0.40;;;20.20;97.00;;;;;;5035583;28;20582;-66
2022/11/08 06:24:39;;;;;;;0.40;0.40;;;20.20;97.10;;;;;;5035094;28;20332;-67
2022/11/08 06:27:27;;;;;;;0.40;0.40;;;20.20;97.00;;;;;;5028372;28;20569;-67
2022/11/08 06:30:15;;;;;;;0.40;0.40;;;20.30;96.90;;;;;;5034146;28;20268;-68
2022/11/08 06:33:03;;;;;;;0.50;0.50;;;20.30;96.80;;;;;;5038463;28;20262;-67
2022/11/08 06:35:52;;;;;;;0.40;0.40;;;20.30;96.70;;;;;;5037732;28;20213;-66
2022/11/08 06:38:41;;;;;;;0.40;0.40;;;20.40;96.70;;;;;;5034442;28;20206;-68
2022/11/08 06:41:31;;;;;;;0.40;0.40;;;20.30;96.60;;;;;;5033756;28;20237;-66
2022/11/08 06:44:19;;;;;;;0.40;0.40;;;20.40;96.60;;;;;;5035414;28;20733;-68
2022/11/08 06:47:07;;;;;;;0.40;0.40;;;20.40;96.50;;;;;;5034520;28;20234;-67
2022/11/08 06:49:55;;;;;;;0.55;0.55;;;20.40;96.60;;;;;;5034023;28;20605;-68
2022/11/08 06:52:43;;;;;;;0.40;0.40;;;20.40;96.70;;;;;;5034855;28;20202;-69
2022/11/08 06:55:33;;;;;;;0.40;0.40;;;20.30;96.80;;;;;;5034281;28;20198;-68
2022/11/08 06:58:21;;;;;;;0.40;0.40;;;20.10;96.70;;;;;;5027597;28;20204;-67
2022/11/08 07:01:12;;;;;;;0.40;0.40;;;20.20;96.80;;;;;;5033666;28;20645;-67
2022/11/08 07:04:00;;;;;;;0.40;0.40;;;20.10;96.80;;;;;;5033803;28;20197;-66
2022/11/08 07:06:48;;;;;;;0.40;0.40;;;20.10;96.90;;;;;;5033661;28;20272;-67
2022/11/08 07:09:36;;;;;;;0.40;0.40;;;20.00;97.10;;;;;;5028899;28;20218;-67
2022/11/08 07:12:25;;;;;;;0.50;0.50;;;20.00;97.10;;;;;;5034324;28;20743;-66
2022/11/08 07:15:16;;;;;;;0.40;0.40;;;22.80;98.30;;;;;;5044428;28;20287;-68
2022/11/08 07:18:06;;;;;;;0.40;0.40;;;20.00;97.10;;;;;;5035646;28;20226;-68
2022/11/08 07:20:58;;;;;;;2.72;2.50;;;20.00;96.90;;;;;;5035961;28;20206;-68
2022/11/08 07:23:47;;;;;;;0.40;0.40;;;20.10;97.40;;;;;;5032990;28;20291;-67
2022/11/08 07:26:35;;;;;;;0.50;0.50;;;20.20;97.40;;;;;;5037022;28;20198;-69
2022/11/08 07:29:24;;;;;;;0.40;0.40;;;20.20;97.30;;;;;;5029691;28;20347;-68
2022/11/08 07:32:12;;;;;;;0.60;0.60;;;20.40;97.70;;;;;;5035010;28;20667;-68
2022/11/08 07:35:01;;;;;;;0.40;0.40;;;20.50;97.70;;;;;;5031002;28;20281;-69
2022/11/08 07:37:50;;;;;;;0.40;0.40;;;20.60;97.70;;;;;;5034640;28;20269;-67
2022/11/08 07:40:38;;;;;;;0.40;0.40;;;20.80;97.60;;;;;;5067857;22;20605;-64
2022/11/08 07:43:27;;;;;;;0.40;0.40;;;20.90;97.40;;;;;;5069741;28;20625;-65
2022/11/08 07:46:17;;;;;;;0.40;0.40;;;21.00;97.20;;;;;;5078229;28;20627;-74
2022/11/08 07:49:05;;;;;;;1.15;1.15;;;21.10;96.90;;;;;;5084170;28;20203;-68
2022/11/08 07:51:53;;;;;;;3.50;3.22;;;21.00;96.70;;;;;;5117074;28;20262;-63
2022/11/08 07:54:41;;;;;;;0.40;0.40;;;21.00;96.60;;;;;;5088968;28;20573;-63
2022/11/08 07:57:29;;;;;;;3.72;2.47;;;21.00;96.50;;;;;;5081292;28;20208;-65
2022/11/08 08:00:18;;;;;;;0.40;0.40;;;21.00;96.50;;;;;;5081479;28;20223;-66
2022/11/08 08:03:11;;;;;;;0.40;0.40;;;21.00;96.50;;;;;;5086557;27;20276;-68
2022/11/08 08:05:59;;;;;;;0.40;0.40;;;20.90;96.60;;;;;;5090569;28;20694;-63
2022/11/08 08:08:48;;;;;;;1.55;1.50;;;20.90;96.70;;;;;;5099510;28;20188;-65
2022/11/08 08:11:36;;;;;;;0.40;0.40;;;20.80;96.70;;;;;;5093797;28;20255;-65
2022/11/08 08:14:24;;;;;;;0.40;0.40;;;20.70;96.80;;;;;;5083388;28;20292;-68
2022/11/08 08:17:12;;;;;;;406.92;278.55;;;20.70;96.90;;;;;;5079957;28;20208;-67
2022/11/08 08:20:02;;;;;;;645.92;494.65;;;20.60;97.20;;;;;;5090595;28;20192;-67
2022/11/08 08:22:51;;;;;;;511.95;371.25;;;20.70;97.20;;;;;;5097267;28;20206;-65
2022/11/08 08:25:39;;;;;;;286.42;202.20;;;20.60;97.30;;;;;;5080684;28;20208;-65
2022/11/08 08:28:27;;;;;;;182.85;109.78;;;20.60;97.50;;;;;;5090947;28;20284;-65
2022/11/08 08:31:15;;;;;;;135.15;92.93;;;20.60;97.50;;;;;;5102663;28;20239;-67
2022/11/08 08:34:04;;;;;;;48.20;39.72;;;20.50;97.60;;;;;;5090271;28;20319;-66
2022/11/08 08:36:53;;;;;;;28.75;25.23;;;20.40;97.70;;;;;;5074473;28;20289;-64
2022/11/08 08:39:41;;;;;;;39.47;35.80;;;20.40;97.70;;;;;;5077668;28;20204;-64
2022/11/08 08:42:29;;;;;;;16.80;7.90;;;20.50;97.80;;;;;;5085422;28;20211;-64
2022/11/08 08:45:17;;;;;;;22.60;18.42;;;20.60;98.00;;;;;;5089213;28;20294;-68
2022/11/08 08:48:06;;;;;;;2.47;2.38;;;20.60;98.10;;;;;;5085800;27;20233;-65
2022/11/08 08:50:54;;;;;;;1.48;1.42;;;20.70;98.20;;;;;;5092619;28;20287;-65
2022/11/08 08:53:43;;;;;;;0.40;0.40;;;20.80;98.00;;;;;;5083988;28;20207;-64
2022/11/08 08:56:31;;;;;;;5.70;5.35;;;20.90;98.10;;;;;;5083874;28;20212;-66
2022/11/08 08:59:19;;;;;;;0.50;0.50;;;20.90;97.90;;;;;;5085991;28;20211;-66
2022/11/08 09:02:27;;;;;;;4.88;4.35;;;21.00;98.10;;;;;;5083994;27;20287;-65
2022/11/08 09:05:16;;;;;;;0.82;0.82;;;21.10;97.90;;;;;;5088127;28;20301;-66
2022/11/08 09:08:04;;;;;;;2.40;2.20;;;21.10;97.90;;;;;;5082706;28;20695;-66
2022/11/08 09:10:56;;;;;;;2.05;1.95;;;21.10;98.00;;;;;;5080197;28;20623;-64
2022/11/08 09:13:45;;;;;;;2.60;2.25;;;21.20;97.90;;;;;;5087998;28;20313;-66
2022/11/08 09:16:33;;;;;;;1.77;1.67;;;21.20;97.80;;;;;;5080618;28;20400;-65
2022/11/08 09:19:21;;;;;;;0.50;0.50;;;21.20;98.00;;;;;;5084829;28;20203;-66
2022/11/08 09:22:09;;;;;;;0.50;0.50;;;21.20;97.90;;;;;;5087919;28;20941;-64
2022/11/08 09:24:57;;;;;;;0.40;0.40;;;21.20;98.00;;;;;;5087655;28;20196;-64
2022/11/08 09:27:47;;;;;;;0.40;0.40;;;21.20;97.90;;;;;;5087635;28;20206;-64
2022/11/08 09:30:35;;;;;;;0.40;0.40;;;21.20;98.10;;;;;;5082914;28;20296;-65
2022/11/08 09:33:24;;;;;;;1.75;1.25;;;21.20;98.00;;;;;;5083420;28;20556;-65
2022/11/08 09:36:17;;;;;;;0.40;0.40;;;21.20;98.10;;;;;;5088739;28;20195;-63
2022/11/08 09:39:05;;;;;;;0.40;0.40;;;21.20;98.00;;;;;;5081841;28;20255;-64
2022/11/08 09:42:28;;;;;;;0.40;0.40;;;21.20;98.20;;;;;;5086390;28;20230;-64
2022/11/08 09:45:24;;;;;;;0.50;0.50;;;21.10;98.20;;;;;;5074604;28;20248;-67
2022/11/08 09:48:20;;;;;;;0.40;0.40;;;21.20;98.20;;;;;;5085947;28;20202;-65
2022/11/08 09:51:12;;;;;;;1.58;1.58;;;21.10;98.30;;;;;;5079433;28;20255;-66
2022/11/08 09:54:03;;;;;;;0.40;0.40;;;21.10;98.30;;;;;;5089782;28;20218;-65
2022/11/08 09:56:53;;;;;;;1.20;1.10;;;21.10;98.80;;;;;;5085144;28;20793;-65
2022/11/08 09:59:46;;;;;;;0.40;0.40;;;21.10;98.80;;;;;;5081992;28;20222;-64
2022/11/08 10:02:36;;;;;;;0.40;0.40;;;21.10;98.90;;;;;;5082877;28;20692;-66
2022/11/08 10:05:33;;;;;;;0.95;0.95;;;21.10;98.90;;;;;;5083520;28;20814;-65
2022/11/08 10:08:28;;;;;;;0.40;0.40;;;21.00;98.80;;;;;;5085124;28;20348;-64
2022/11/08 10:11:31;;;;;;;0.40;0.40;;;21.00;98.90;;;;;;5079246;28;20227;-64
2022/11/08 10:14:31;;;;;;;6.63;4.78;;;21.00;98.90;;;;;;5089320;28;20217;-62
2022/11/08 10:17:49;;;;;;;6.95;6.45;;;21.00;99.30;;;;;;5099438;28;20218;-64
2022/11/08 10:20:48;;;;;;;3.88;3.65;;;20.90;99.00;;;;;;5087720;28;20232;-63
2022/11/08 10:23:43;;;;;;;0.40;0.40;;;20.90;99.20;;;;;;5089398;28;20252;-67
2022/11/08 10:26:36;;;;;;;0.40;0.40;;;21.00;99.30;;;;;;5077543;28;20204;-66
2022/11/08 10:29:29;;;;;;;2.05;2.05;;;21.10;99.80;;;;;;5084813;28;20261;-66
2022/11/08 10:32:20;;;;;;;0.40;0.40;;;21.20;99.90;;;;;;5077611;28;20286;-68
2022/11/08 10:35:29;;;;;;;3.97;1.95;;;21.40;99.90;;;;;;5102150;28;20696;-65
2022/11/08 10:38:21;;;;;;;1.02;1.02;;;21.60;99.80;;;;;;5101789;28;20310;-66
2022/11/08 10:41:17;;;;;;;0.40;0.40;;;21.80;99.40;;;;;;5100435;28;20699;-65
2022/11/08 10:44:09;;;;;;;0.40;0.40;;;22.00;99.10;;;;;;5100726;28;20218;-66
2022/11/08 10:46:59;;;;;;;0.40;0.40;;;22.20;98.90;;;;;;5104922;28;20219;-65
2022/11/08 10:49:47;;;;;;;0.70;0.70;;;22.40;98.60;;;;;;5083825;28;20669;-65
2022/11/08 10:52:43;;;;;;;1.00;1.00;;;22.50;98.40;;;;;;5070774;28;20208;-67
2022/11/08 10:55:37;;;;;;;0.60;0.60;;;22.70;98.20;;;;;;5075678;28;20283;-67
2022/11/08 10:58:30;;;;;;;0.40;0.40;;;22.80;97.90;;;;;;5099199;28;20212;-64
2022/11/08 11:01:21;;;;;;;0.40;0.40;;;23.00;97.70;;;;;;5101718;28;20227;-66
2022/11/08 11:04:26;;;;;;;0.40;0.40;;;23.10;97.50;;;;;;5108753;28;20245;-67
2022/11/08 11:07:32;;;;;;;0.40;0.40;;;23.20;97.30;;;;;;5096398;28;20252;-67
2022/11/08 11:10:26;;;;;;;1.15;0.90;;;23.40;97.10;;;;;;5105926;28;20264;-66
2022/11/08 11:13:20;;;;;;;0.40;0.40;;;23.50;96.90;;;;;;5085942;28;20204;-66
2022/11/08 11:16:13;;;;;;;0.40;0.40;;;23.50;96.80;;;;;;5095788;28;20252;-67
2022/11/08 11:19:04;;;;;;;0.40;0.40;;;23.60;96.80;;;;;;5095426;28;20256;-67
2022/11/08 11:21:56;;;;;;;0.40;0.40;;;23.70;96.70;;;;;;5098433;28;20269;-70
2022/11/08 11:24:49;;;;;;;0.40;0.40;;;23.70;96.70;;;;;;5099067;28;20215;-69
2022/11/08 11:27:41;;;;;;;2.35;2.25;;;23.80;96.60;;;;;;5092734;28;20198;-68
2022/11/08 11:30:32;;;;;;;0.60;0.60;;;23.70;96.50;;;;;;5083249;28;20239;-70
2022/11/08 11:33:24;;;;;;;0.40;0.40;;;23.80;96.40;;;;;;5084492;28;20216;-68
2022/11/08 11:36:15;;;;;;;0.40;0.40;;;23.80;96.40;;;;;;5088297;28;20203;-66
2022/11/08 11:39:11;;;;;;;0.40;0.40;;;23.70;96.40;;;;;;5087477;28;20231;-71
2022/11/08 11:42:04;;;;;;;1.15;1.15;;;23.70;96.40;;;;;;5089709;28;20227;-69
2022/11/08 11:45:17;;;;;;;0.40;0.40;;;23.70;96.50;;;;;;5088208;28;20199;-66
2022/11/08 11:48:13;;;;;;;0.40;0.40;;;23.70;96.60;;;;;;5087582;28;20196;-70
2022/11/08 11:51:02;;;;;;;1.45;1.35;;;23.60;96.70;;;;;;5093939;28;20695;-66
2022/11/08 11:53:50;;;;;;;0.40;0.40;;;23.60;97.00;;;;;;5081461;28;20204;-69
2022/11/08 11:56:45;;;;;;;0.85;0.85;;;23.60;96.80;;;;;;5086586;28;20619;-70
2022/11/08 12:00:02;;;;;;;0.40;0.40;;;23.60;96.70;;;;;;5084431;28;20224;-68
2022/11/08 12:03:11;;;;;;;0.40;0.40;;;23.60;96.70;;;;;;5081885;28;20927;-65
2022/11/08 12:06:15;;;;;;;20.88;2.35;;;23.60;96.80;;;;;;5081997;28;20208;-65
2022/11/08 12:09:26;;;;;;;0.40;0.40;;;23.60;97.10;;;;;;5083303;28;20199;-65
2022/11/08 12:12:30;;;;;;;0.50;0.50;;;23.10;96.80;;;;;;5085611;28;20208;-67
2022/11/08 12:15:25;;;;;;;0.40;0.40;;;23.70;97.20;;;;;;5087024;28;20720;-65
2022/11/08 12:18:39;;;;;;;18.00;12.00;;;23.70;97.10;;;;;;5083706;28;20256;-66
2022/11/08 12:21:39;;;;;;;1.40;1.40;;;23.80;97.10;;;;;;5087566;28;20219;-64
2022/11/08 12:24:43;;;;;;;1.85;1.75;;;23.90;97.00;;;;;;5079782;28;20207;-65
2022/11/08 12:27:43;;;;;;;0.80;0.80;;;24.00;96.90;;;;;;5085735;28;20282;-65
2022/11/08 12:30:40;;;;;;;21.83;14.90;;;24.00;96.50;;;;;;5088431;28;20294;-63
2022/11/08 12:33:35;;;;;;;0.40;0.40;;;24.00;96.60;;;;;;5085810;28;20210;-65
2022/11/08 12:36:32;;;;;;;3.03;2.78;;;24.10;96.40;;;;;;5080766;28;20212;-65
2022/11/08 12:39:28;;;;;;;1.73;1.73;;;24.10;96.20;;;;;;5089059;28;20262;-64
2022/11/08 12:42:34;;;;;;;0.77;0.77;;;24.20;96.30;;;;;;5085295;28;20234;-64
2022/11/08 12:45:38;;;;;;;2.88;2.78;;;24.20;96.00;;;;;;5082033;28;20359;-64
2022/11/08 12:48:58;;;;;;;0.40;0.40;;;24.30;96.00;;;;;;5084665;28;20286;-68
2022/11/08 12:52:05;;;;;;;0.50;0.50;;;24.30;96.20;;;;;;5085394;28;20339;-64
2022/11/08 12:54:57;;;;;;;0.40;0.40;;;24.30;95.90;;;;;;5087477;28;20248;-65
2022/11/08 12:57:46;;;;;;;0.40;0.40;;;24.30;95.90;;;;;;5085415;28;20295;-63
2022/11/08 13:00:36;;;;;;;0.50;0.50;;;24.30;96.00;;;;;;5082131;28;20362;-64
2022/11/08 13:03:56;;;;;;;0.40;0.40;;;24.30;95.70;;;;;;5081909;28;20672;-65
2022/11/08 13:06:59;;;;;;;0.40;0.40;;;24.20;95.70;;;;;;5077897;28;20211;-63
2022/11/08 13:09:55;;;;;;;0.40;0.40;;;24.00;96.50;;;;;;5082102;28;20750;-62
2022/11/08 13:12:55;;;;;;;0.40;0.40;;;24.10;96.10;;;;;;5092503;28;20207;-64
2022/11/08 13:16:08;;;;;;;0.40;0.40;;;24.00;96.10;;;;;;5082377;28;20245;-64
2022/11/08 13:18:58;;;;;;;0.40;0.40;;;24.00;96.10;;;;;;5085324;28;20310;-64
2022/11/08 13:21:46;;;;;;;0.40;0.40;;;24.00;96.30;;;;;;5091776;28;20238;-69
2022/11/08 13:24:39;;;;;;;0.40;0.40;;;24.00;96.30;;;;;;5083532;28;20291;-65
2022/11/08 13:27:35;;;;;;;0.40;0.40;;;24.10;96.30;;;;;;5080508;28;20680;-64
2022/11/08 13:30:36;;;;;;;0.40;0.40;;;24.10;96.30;;;;;;5073169;28;20315;-65
2022/11/08 13:33:29;;;;;;;0.90;0.90;;;24.10;96.20;;;;;;5082476;28;20223;-66
2022/11/08 13:36:30;;;;;;;1.38;0.90;;;24.10;96.20;;;;;;5088292;28;20756;-64
2022/11/08 13:39:31;;;;;;;0.55;0.55;;;24.20;96.10;;;;;;5079314;27;20227;-65
2022/11/08 13:42:39;;;;;;;0.40;0.40;;;24.30;96.10;;;;;;5091258;28;20227;-64
2022/11/08 13:45:30;;;;;;;0.40;0.40;;;24.30;95.80;;;;;;5086163;28;20195;-64
2022/11/08 13:48:40;;;;;;;0.40;0.40;;;24.40;95.80;;;;;;5091154;28;20299;-65
2022/11/08 13:51:29;;;;;;;10.45;2.97;;;24.40;95.70;;;;;;5089521;28;20780;-64
2022/11/08 13:54:50;;;;;;;0.40;0.40;;;24.40;95.50;;;;;;5080098;28;20201;-63
2022/11/08 13:58:01;;;;;;;2.20;1.98;;;24.40;95.40;;;;;;5087096;28;20604;-64
2022/11/08 14:00:49;;;;;;;0.40;0.40;;;24.40;95.50;;;;;;5080026;28;20238;-66
2022/11/08 14:03:53;;;;;;;0.40;0.40;;;24.40;95.40;;;;;;5076135;28;20208;-66
2022/11/08 14:06:50;;;;;;;0.40;0.40;;;24.40;95.30;;;;;;5085653;28;20287;-67
2022/11/08 14:09:47;;;;;;;0.40;0.40;;;24.40;95.30;;;;;;5089607;28;20210;-65
2022/11/08 14:12:42;;;;;;;0.40;0.40;;;24.30;95.40;;;;;;5082876;28;20725;-66
2022/11/08 14:15:39;;;;;;;10.65;4.88;;;24.30;95.40;;;;;;5085600;28;20688;-68
2022/11/08 14:18:29;;;;;;;0.40;0.40;;;24.30;95.80;;;;;;5088038;28;20710;-66
2022/11/08 14:21:19;;;;;;;0.40;0.40;;;24.20;95.90;;;;;;5089891;28;20224;-68
2022/11/08 14:24:15;;;;;;;0.40;0.40;;;24.10;96.10;;;;;;5088216;28;20204;-65
2022/11/08 14:27:04;;;;;;;0.47;0.47;;;24.00;96.10;;;;;;5091154;28;20287;-66
2022/11/08 14:29:58;;;;;;;0.40;0.40;;;24.00;96.10;;;;;;5078586;28;20689;-66
2022/11/08 14:32:48;;;;;;;0.40;0.40;;;24.00;96.40;;;;;;5085977;28;20222;-67
2022/11/08 14:35:37;;;;;;;0.50;0.50;;;24.00;96.30;;;;;;5079399;27;20278;-67
2022/11/08 14:38:25;;;;;;;0.40;0.40;;;24.00;96.20;;;;;;5086936;28;20712;-67
2022/11/08 14:41:16;;;;;;;0.40;0.40;;;24.10;95.90;;;;;;5102287;28;20317;-67
2022/11/08 14:44:05;;;;;;;0.40;0.40;;;24.20;95.60;;;;;;5096299;28;20291;-65
2022/11/08 14:46:53;;;;;;;2.75;2.65;;;24.30;95.60;;;;;;5090073;28;20232;-69
2022/11/08 14:49:47;;;;;;;0.40;0.40;;;24.30;95.20;;;;;;5077348;28;20207;-69
2022/11/08 14:52:35;;;;;;;1.58;1.58;;;24.40;94.90;;;;;;5087064;28;20276;-66
2022/11/08 14:55:25;;;;;;;0.60;0.60;;;24.40;94.70;;;;;;5094211;28;20239;-66
2022/11/08 14:58:14;;;;;;;0.40;0.40;;;24.50;94.70;;;;;;5086878;28;20283;-65
2022/11/08 15:01:04;;;;;;;0.40;0.40;;;24.50;95.10;;;;;;5084432;28;20231;-66
2022/11/08 15:03:55;;;;;;;0.40;0.40;;;24.60;94.70;;;;;;5085072;28;20212;-66
2022/11/08 15:06:48;;;;;;;0.40;0.40;;;24.60;94.60;;;;;;5080054;28;20769;-66
2022/11/08 15:09:36;;;;;;;0.40;0.40;;;24.60;94.40;;;;;;5076912;28;20218;-65
2022/11/08 15:12:25;;;;;;;0.40;0.40;;;24.60;94.00;;;;;;5087455;28;20286;-66
2022/11/08 15:15:21;;;;;;;0.40;0.40;;;24.60;93.70;;;;;;5091618;28;20278;-67
2022/11/08 15:18:14;;;;;;;0.40;0.40;;;24.50;94.00;;;;;;5090387;27;20269;-63